Main page
METAR-TAF:

METAR-TAF

Airports :

Almería Airport

Almería, Spain

latitude: 36-51N, longitude: 002-23W, elevation: 15 m

Current weather observation

The report was made 37 minutes ago, at 22:00 UTC
Wind 2 kt from variable directions
Temperature 24°C
Humidity 78%
Pressure 1019 hPa
Visibility 10 km or more

METAR: LEAM 212200Z AUTO VRB02KT 9999 NCD 24/20 Q1019

Time: 00:37 (22:37 UTC)

Forecast

The report was made 2 hours and 37 minutes ago, at 20:00 UTC
Forecast valid from 21 at 21 UTC to 22 at 21 UTC
Wind 5 kt from the North/Northeast
Visibility 10 km or more
Few clouds at a height of 1500 ft
Probability 40% :
Temporary
from 22 at 02 UTC to 22 at 06 UTC
Visibility: 4000 m
Broken clouds at a height of 1000 ft
mist
Becoming
from 22 at 09 UTC to 22 at 11 UTC
Wind 10 kt from the East/Southeast

TAF: LEAM 212000Z 2121/2221 02005KT 9999 FEW015 TX32/2215Z TN22/2205Z PROB40 TEMPO 2202/2206 4000 BR BKN010 BECMG 2209/2211 12010KT

Weather observations and forecasts of more than 4000 airports (METAR and TAF reports).

The available stations are represented by yellow and red dots on the map.

Hover mouse over dot to see the name of the station.

Then click to see weather observations and forecasts.

To change the map : click on the green buttons with a black cross to zoom in, on the green button with a dash to zoom out, or on the green arrows for adjacent maps.


METAR-TAF: